Time;durP1;ratioP1;P1;durP2;ratioP2;P2;SDS_P1;SDS_P2;PMS_P1;PMS_P2;Temp;Humidity;BMP_temperature;BMP_pressure;BME280_temperature;BME280_humidity;BME280_pressure;Samples;Min_cycle;Max_cycle;Signal;HPM_P1;HPM_P2
2023/08/31 00:03:38;;;;;;;13.70;8.10;;;;;;;23.82;52.37;99823.31;105869;1265;63372;-90
2023/08/31 00:06:09;;;;;;;13.30;8.10;;;;;;;23.79;51.85;99826.34;105876;1266;276538;-92
2023/08/31 00:08:39;;;;;;;11.40;8.00;;;;;;;23.77;51.45;99827.98;106177;1263;58950;-91
2023/08/31 00:11:11;;;;;;;13.50;7.70;;;;;;;23.73;51.15;99828.95;106321;1260;59388;-92
2023/08/31 00:13:42;;;;;;;18.10;7.60;;;;;;;23.70;50.82;99826.74;106159;1260;62651;-91
2023/08/31 00:16:12;;;;;;;12.60;7.30;;;;;;;23.68;50.47;99830.83;105999;1260;63484;-91
2023/08/31 00:18:45;;;;;;;8.50;6.30;;;;;;;23.65;50.05;99831.44;106435;1257;64926;-91
2023/08/31 00:21:14;;;;;;;11.60;7.60;;;;;;;23.61;49.63;99830.36;106726;1256;59597;-89
2023/08/31 00:23:45;;;;;;;10.30;7.20;;;;;;;23.56;49.46;99830.05;106630;1256;59650;-90
2023/08/31 00:26:16;;;;;;;15.50;7.70;;;;;;;23.54;48.79;99832.52;106506;1255;72111;-91
2023/08/31 00:28:46;;;;;;;12.20;7.30;;;;;;;23.53;48.58;99832.80;106405;1257;63780;-90
2023/08/31 00:31:17;;;;;;;15.00;7.40;;;;;;;23.52;48.13;99828.64;106401;1257;65378;-90
2023/08/31 00:33:48;;;;;;;13.20;6.90;;;;;;;23.51;47.38;99817.81;107305;1264;59673;-93
2023/08/31 00:36:19;;;;;;;10.70;6.80;;;;;;;23.50;46.90;99813.50;106154;1257;77772;-62
2023/08/31 00:38:46;;;;;;;11.10;6.20;;;;;;;23.48;46.72;99810.58;105072;1257;64146;-61
2023/08/31 00:41:14;;;;;;;10.50;7.10;;;;;;;23.45;46.29;99808.83;104820;1259;61421;-61
2023/08/31 00:43:42;;;;;;;18.10;6.50;;;;;;;23.43;46.15;99811.91;104988;1260;63785;-61
2023/08/31 00:46:12;;;;;;;12.30;7.00;;;;;;;23.40;46.05;99811.73;104873;1259;59803;-59
2023/08/31 00:48:40;;;;;;;11.30;6.20;;;;;;;23.37;45.95;99811.42;104775;1266;59650;-63
2023/08/31 00:51:08;;;;;;;12.10;6.90;;;;;;;23.35;45.61;99813.23;104871;1259;64295;-61
2023/08/31 00:53:36;;;;;;;10.70;6.30;;;;;;;23.31;45.25;99810.70;104965;1259;61507;-61
2023/08/31 00:56:04;;;;;;;15.70;6.40;;;;;;;23.27;45.25;99811.48;104970;1259;63735;-59
2023/08/31 00:58:32;;;;;;;9.30;5.40;;;;;;;23.22;44.98;99808.17;105117;1259;59767;-60
2023/08/31 01:01:18;;;;;;;9.70;6.40;;;;;;;23.19;44.86;99809.94;104941;1258;59858;-62
2023/08/31 01:04:18;;;;;;;10.50;6.00;;;;;;;23.17;44.59;99810.53;104971;1257;64079;-61
2023/08/31 01:07:02;;;;;;;11.40;6.00;;;;;;;23.15;44.35;99801.51;105005;1257;60245;-62
2023/08/31 01:09:40;;;;;;;10.60;6.30;;;;;;;23.13;44.34;99801.48;104912;1259;63863;-59
2023/08/31 01:12:34;;;;;;;11.80;6.00;;;;;;;23.11;44.19;99801.41;104645;1261;59965;-60
2023/08/31 01:15:04;;;;;;;12.00;5.40;;;;;;;23.09;44.21;99801.73;104785;1264;59612;-60
2023/08/31 01:17:32;;;;;;;8.60;5.60;;;;;;;23.06;43.81;99800.28;105077;1262;64706;-62
2023/08/31 01:20:00;;;;;;;11.00;5.90;;;;;;;23.03;43.54;99804.45;104840;1266;60274;-62
2023/08/31 01:22:42;;;;;;;10.60;5.60;;;;;;;23.01;43.68;99806.23;104849;1264;62514;-62
2023/08/31 01:25:10;;;;;;;10.40;5.80;;;;;;;22.98;43.59;99804.58;105148;1259;59792;-62
2023/08/31 01:27:37;;;;;;;11.40;5.90;;;;;;;22.95;43.57;99802.05;104919;1259;59758;-62
2023/08/31 01:30:06;;;;;;;9.40;5.60;;;;;;;22.93;44.28;99804.66;105062;1257;64759;-61
2023/08/31 01:32:34;;;;;;;11.70;5.70;;;;;;;22.90;44.05;99805.52;105277;1262;60321;-62
2023/08/31 01:35:03;;;;;;;11.90;6.10;;;;;;;22.88;44.08;99803.39;104830;1260;66249;-62
2023/08/31 01:37:45;;;;;;;9.60;5.30;;;;;;;22.85;44.04;99800.48;105301;1256;60333;-61
2023/08/31 01:40:17;;;;;;;13.30;5.90;;;;;;;22.81;43.84;99799.89;104976;1260;59749;-65
2023/08/31 01:42:46;;;;;;;15.70;5.90;;;;;;;22.78;43.73;99799.95;105023;1263;64131;-62
2023/08/31 01:45:16;;;;;;;13.50;6.50;;;;;;;22.76;43.89;99807.39;105065;1264;61903;-67
2023/08/31 01:47:48;;;;;;;10.10;6.00;;;;;;;22.74;44.11;99811.98;105207;1260;63733;-62
2023/08/31 01:50:18;;;;;;;8.90;5.70;;;;;;;22.71;44.53;99814.73;105159;1257;60707;-60
2023/08/31 01:52:45;;;;;;;11.00;6.10;;;;;;;22.69;44.60;99815.40;104728;1259;59652;-61
2023/08/31 01:55:16;;;;;;;10.90;6.00;;;;;;;22.68;44.96;99820.11;104822;1259;64180;-62
2023/08/31 01:57:43;;;;;;;10.20;5.40;;;;;;;22.68;45.07;99817.88;104845;1264;60100;-61
2023/08/31 02:00:19;;;;;;;9.20;5.80;;;;;;;22.61;45.30;99817.73;104797;1260;62538;-62
2023/08/31 02:02:49;;;;;;;14.80;5.50;;;;;;;22.59;45.20;99815.50;104744;1257;60495;-60
2023/08/31 02:05:16;;;;;;;9.80;5.50;;;;;;;22.58;45.01;99821.66;104923;1259;59703;-61
2023/08/31 02:07:44;;;;;;;8.00;5.60;;;;;;;22.58;45.25;99819.27;104991;1260;64076;-60
2023/08/31 02:10:11;;;;;;;10.50;6.30;;;;;;;22.57;44.91;99820.64;104953;1259;60266;-61
2023/08/31 02:12:42;;;;;;;12.50;6.40;;;;;;;22.56;44.86;99823.44;104935;1262;62645;-63
2023/08/31 02:15:10;;;;;;;11.00;5.90;;;;;;;22.55;45.02;99826.83;105124;1262;59704;-64
2023/08/31 02:17:37;;;;;;;13.70;6.30;;;;;;;22.54;45.11;99827.08;105171;1262;59635;-63
2023/08/31 02:20:06;;;;;;;9.70;5.60;;;;;;;22.53;44.93;99827.05;105177;1262;63091;-61
2023/08/31 02:22:34;;;;;;;11.60;6.70;;;;;;;22.51;44.91;99824.99;104886;1259;61346;-60
2023/08/31 02:25:02;;;;;;;8.80;5.90;;;;;;;22.50;45.06;99826.29;105040;1259;64337;-62
2023/08/31 02:27:30;;;;;;;12.00;5.90;;;;;;;22.50;44.72;99826.77;104952;1264;59730;-60
2023/08/31 02:29:58;;;;;;;8.50;5.60;;;;;;;22.50;44.54;99828.92;108258;1257;60359;-61
2023/08/31 02:32:27;;;;;;;17.40;6.80;;;;;;;22.51;44.47;99833.83;104975;1259;64070;-60
2023/08/31 02:34:54;;;;;;;13.60;6.00;;;;;;;22.51;44.15;99834.16;104878;1258;61498;-60
2023/08/31 02:37:22;;;;;;;12.40;5.60;;;;;;;22.50;44.08;99832.17;104887;1262;64797;-59
2023/08/31 02:39:50;;;;;;;8.30;5.50;;;;;;;22.50;44.10;99837.08;104953;1262;59730;-61
2023/08/31 02:42:17;;;;;;;10.40;5.70;;;;;;;22.50;44.26;99841.91;104769;1264;59569;-60
2023/08/31 02:44:46;;;;;;;10.00;5.20;;;;;;;22.50;44.38;99845.70;104906;1259;64059;-59
2023/08/31 02:47:13;;;;;;;10.20;5.50;;;;;;;22.48;44.10;99845.30;105246;1259;61919;-60
2023/08/31 02:49:41;;;;;;;9.20;6.10;;;;;;;22.45;44.22;99844.27;104983;1257;63690;-62
2023/08/31 02:52:09;;;;;;;11.80;6.00;;;;;;;22.41;44.52;99839.81;104869;1262;59757;-59
2023/08/31 02:54:36;;;;;;;10.20;5.90;;;;;;;22.37;44.25;99834.70;105468;1259;60220;-59
2023/08/31 02:57:04;;;;;;;9.00;5.40;;;;;;;22.36;44.33;99832.94;104870;1259;64167;-59
2023/08/31 02:59:35;;;;;;;9.90;5.60;;;;;;;22.35;44.35;99836.33;105375;1259;60120;-59
2023/08/31 03:02:04;;;;;;;12.60;6.20;;;;;;;22.35;44.52;99834.44;104819;1259;63708;-60
2023/08/31 03:04:32;;;;;;;9.10;5.80;;;;;;;22.33;44.49;99828.42;105021;1262;59714;-66
2023/08/31 03:06:59;;;;;;;11.40;6.10;;;;;;;22.32;44.38;99824.43;104926;1265;59673;-57
2023/08/31 03:09:26;;;;;;;9.20;5.80;;;;;;;22.30;44.43;99823.83;104980;1259;62849;-59
2023/08/31 03:11:54;;;;;;;10.20;5.90;;;;;;;22.29;44.36;99824.80;104595;1264;60100;-59
2023/08/31 03:14:22;;;;;;;12.50;6.40;;;;;;;22.29;44.41;99829.27;104696;1259;72714;-59
2023/08/31 03:16:50;;;;;;;11.40;5.80;;;;;;;22.30;44.33;99830.78;105521;1260;59742;-59
2023/08/31 03:19:17;;;;;;;12.30;6.10;;;;;;;22.31;44.50;99830.45;105047;1259;59912;-60
2023/08/31 03:21:45;;;;;;;11.30;6.10;;;;;;;22.34;44.59;99835.06;104943;1257;64068;-58
2023/08/31 03:24:14;;;;;;;9.10;5.50;;;;;;;22.35;44.28;99838.27;105326;1262;62310;-60
2023/08/31 03:26:42;;;;;;;9.00;5.50;;;;;;;22.36;44.25;99839.35;104867;1262;63837;-59
2023/08/31 03:29:09;;;;;;;12.30;5.60;;;;;;;22.37;43.96;99834.71;104827;1260;59666;-59
2023/08/31 03:31:37;;;;;;;11.70;5.60;;;;;;;22.39;44.11;99836.44;104739;1263;60436;-64
2023/08/31 03:34:05;;;;;;;8.20;5.50;;;;;;;22.40;43.85;99834.13;104778;1259;64148;-64
2023/08/31 03:36:32;;;;;;;8.50;5.20;;;;;;;22.43;44.05;99832.21;104971;1265;63682;-63
2023/08/31 03:39:01;;;;;;;13.90;5.90;;;;;;;22.46;44.21;99833.80;105040;1259;63692;-61
2023/08/31 03:41:29;;;;;;;10.70;5.20;;;;;;;22.48;44.27;99829.70;104899;1259;59908;-60
2023/08/31 03:43:58;;;;;;;8.60;5.80;;;;;;;22.50;44.11;99828.54;105399;1262;59561;-58
2023/08/31 03:46:26;;;;;;;10.00;5.30;;;;;;;22.52;43.95;99829.15;105017;1259;64109;-63
2023/08/31 03:48:54;;;;;;;15.30;5.90;;;;;;;22.55;43.87;99835.16;105011;1259;61466;-58
2023/08/31 03:51:21;;;;;;;11.30;6.10;;;;;;;22.57;43.94;99836.19;105021;1261;62525;-61
2023/08/31 03:53:49;;;;;;;10.60;5.00;;;;;;;22.59;44.33;99837.33;104778;1259;59852;-61
2023/08/31 03:56:17;;;;;;;9.00;5.90;;;;;;;22.62;44.20;99830.83;104721;1266;59658;-59
2023/08/31 03:58:45;;;;;;;10.80;4.90;;;;;;;22.64;43.94;99832.27;104786;1259;64124;-59
2023/08/31 04:01:14;;;;;;;10.60;5.10;;;;;;;22.67;43.78;99836.04;104911;1259;60222;-65
2023/08/31 04:03:42;;;;;;;11.70;5.90;;;;;;;22.68;43.99;99838.14;104923;1260;63845;-61
2023/08/31 04:06:10;;;;;;;9.00;5.30;;;;;;;22.70;44.41;99835.28;105031;1262;60509;-59
2023/08/31 04:08:40;;;;;;;9.50;5.30;;;;;;;22.71;44.63;99838.40;104964;1265;60405;-63
2023/08/31 04:11:08;;;;;;;11.00;5.50;;;;;;;22.72;45.03;99839.34;105054;1259;65034;-62
2023/08/31 04:13:35;;;;;;;8.90;4.90;;;;;;;22.73;44.91;99843.05;104831;1265;60346;-60
2023/08/31 04:16:03;;;;;;;18.60;5.20;;;;;;;22.72;44.77;99841.75;104929;1260;62718;-68
2023/08/31 04:18:31;;;;;;;10.20;5.10;;;;;;;22.71;44.95;99841.63;104591;1259;60578;-58
2023/08/31 04:21:00;;;;;;;7.50;4.50;;;;;;;22.70;44.92;99839.88;105172;1259;60576;-60
2023/08/31 04:23:27;;;;;;;12.00;4.90;;;;;;;22.69;44.77;99841.80;105136;1259;64909;-61
2023/08/31 04:25:56;;;;;;;10.80;4.80;;;;;;;22.68;44.67;99844.73;104867;1265;61732;-60
2023/08/31 04:28:24;;;;;;;9.80;4.90;;;;;;;22.68;45.27;99848.73;105060;1259;63802;-60
2023/08/31 04:30:52;;;;;;;15.00;5.00;;;;;;;22.68;45.69;99850.35;105095;1260;60492;-62
2023/08/31 04:33:19;;;;;;;11.50;4.90;;;;;;;22.68;45.46;99851.29;105086;1262;63735;-66
2023/08/31 04:35:47;;;;;;;9.90;4.80;;;;;;;22.68;45.27;99849.48;104768;1259;64922;-64
2023/08/31 04:38:16;;;;;;;9.40;4.40;;;;;;;22.70;45.47;99853.89;104934;1262;69467;-64
2023/08/31 04:40:43;;;;;;;9.30;4.80;;;;;;;22.71;45.54;99851.16;104591;1262;62526;-67
2023/08/31 04:43:11;;;;;;;10.80;5.00;;;;;;;22.72;45.42;99851.52;104866;1259;61479;-64
2023/08/31 04:45:38;;;;;;;9.80;4.80;;;;;;;22.73;45.33;99851.35;104884;1264;60381;-61
2023/08/31 04:48:06;;;;;;;10.20;4.80;;;;;;;22.75;45.21;99856.16;104866;1260;63677;-59
2023/08/31 04:50:34;;;;;;;11.10;4.80;;;;;;;22.76;45.32;99856.73;105329;1262;60400;-67
2023/08/31 04:53:01;;;;;;;10.10;4.70;;;;;;;22.78;45.55;99857.67;104740;1260;62582;-62
2023/08/31 04:55:29;;;;;;;11.30;5.40;;;;;;;22.81;46.08;99859.48;104595;1261;60578;-60
2023/08/31 04:57:57;;;;;;;12.20;4.80;;;;;;;22.83;46.16;99859.79;104841;1263;60487;-61
2023/08/31 05:00:25;;;;;;;7.90;4.20;;;;;;;22.88;46.45;99865.66;104956;1259;74352;-68
2023/08/31 05:02:52;;;;;;;9.00;4.50;;;;;;;22.91;46.40;99864.44;105168;1256;61476;-60
2023/08/31 05:05:20;;;;;;;8.10;4.00;;;;;;;22.97;45.81;99865.47;104937;1265;62648;-61
2023/08/31 05:07:48;;;;;;;7.40;4.50;;;;;;;23.01;45.40;99861.23;105123;1262;60453;-61
2023/08/31 05:10:16;;;;;;;8.80;4.50;;;;;;;23.06;45.61;99857.67;104940;1262;60375;-64
2023/08/31 05:12:44;;;;;;;10.10;4.20;;;;;;;23.12;45.79;99862.27;105347;1259;65466;-67
2023/08/31 05:15:12;;;;;;;10.70;4.50;;;;;;;23.16;44.95;99862.56;105058;1260;61472;-60
2023/08/31 05:17:39;;;;;;;10.40;4.60;;;;;;;23.21;44.73;99865.88;104969;1259;63784;-62
2023/08/31 05:20:09;;;;;;;10.50;5.10;;;;;;;23.25;44.54;99871.20;104907;1262;60378;-62
2023/08/31 05:22:37;;;;;;;8.90;4.80;;;;;;;23.29;44.51;99876.13;105139;1259;60566;-61
2023/08/31 05:25:05;;;;;;;8.20;4.60;;;;;;;23.34;44.11;99876.17;105188;1261;63654;-61
2023/08/31 05:27:33;;;;;;;8.20;4.20;;;;;;;23.38;43.47;99872.38;105056;1260;63590;-69
2023/08/31 05:30:00;;;;;;;10.60;4.80;;;;;;;23.42;43.77;99874.98;105011;1259;63768;-67
2023/08/31 05:32:29;;;;;;;9.30;4.80;;;;;;;23.46;43.95;99878.83;104821;1258;60499;-64
2023/08/31 05:34:59;;;;;;;10.00;5.00;;;;;;;23.51;43.35;99884.25;105176;1259;60480;-63
2023/08/31 05:37:32;;;;;;;11.40;5.10;;;;;;;23.54;42.77;99890.05;104976;1260;65052;-63
2023/08/31 05:39:59;;;;;;;9.20;4.20;;;;;;;23.57;42.58;99890.89;105523;1264;60463;-64
2023/08/31 05:42:27;;;;;;;17.00;5.60;;;;;;;23.60;42.80;99893.22;105216;1259;62679;-67
2023/08/31 05:44:54;;;;;;;9.80;4.60;;;;;;;23.63;42.73;99900.88;105312;1262;60573;-62
2023/08/31 05:47:22;;;;;;;8.60;5.00;;;;;;;23.66;42.48;99904.14;105014;1263;60384;-60
2023/08/31 05:49:51;;;;;;;9.30;4.80;;;;;;;23.69;42.60;99907.05;105012;1260;63664;-62
2023/08/31 05:52:18;;;;;;;15.60;5.70;;;;;;;23.72;42.64;99909.88;105299;1259;62057;-67
2023/08/31 05:54:46;;;;;;;9.80;4.40;;;;;;;23.76;43.10;99909.55;105053;1259;63824;-60
2023/08/31 05:57:14;;;;;;;10.90;4.90;;;;;;;23.80;43.22;99911.17;104950;1264;60570;-60
2023/08/31 05:59:41;;;;;;;9.80;4.40;;;;;;;23.85;43.55;99913.80;105149;1262;60570;-59
2023/08/31 06:02:09;;;;;;;10.70;4.20;;;;;;;23.90;43.48;99914.65;104919;1260;63731;-60
2023/08/31 06:04:36;;;;;;;11.20;4.70;;;;;;;23.95;43.22;99918.45;105158;1265;61696;-67
2023/08/31 06:07:04;;;;;;;14.50;4.80;;;;;;;23.99;43.40;99921.46;104971;1262;63743;-72
2023/08/31 06:09:32;;;;;;;12.60;4.10;;;;;;;24.03;43.52;99918.57;105085;1260;60526;-68
2023/08/31 06:11:59;;;;;;;12.90;4.80;;;;;;;24.09;43.39;99916.77;104846;1262;59708;-61
2023/08/31 06:14:27;;;;;;;12.00;4.50;;;;;;;24.10;43.75;99916.15;104994;1265;64919;-66
2023/08/31 06:16:54;;;;;;;7.60;4.50;;;;;;;24.08;43.66;99921.45;104814;1265;61375;-59
2023/08/31 06:19:22;;;;;;;10.60;4.80;;;;;;;24.25;43.34;99913.96;104796;1264;62968;-60
2023/08/31 06:21:49;;;;;;;13.50;4.60;;;;;;;24.40;43.18;99909.98;104490;1260;60574;-58
2023/08/31 06:24:17;;;;;;;9.30;4.20;;;;;;;24.51;42.79;99905.18;104934;1259;60520;-55
2023/08/31 06:26:44;;;;;;;9.40;4.40;;;;;;;24.52;42.75;99904.13;104901;1259;64859;-56
2023/08/31 06:29:12;;;;;;;8.10;4.10;;;;;;;24.53;42.73;99906.10;104929;1259;61371;-58
2023/08/31 06:31:40;;;;;;;11.60;4.40;;;;;;;24.70;42.53;99907.77;104625;1263;63918;-56
2023/08/31 06:34:08;;;;;;;10.50;4.60;;;;;;;24.83;42.25;99905.54;105006;1260;60534;-52
2023/08/31 06:36:35;;;;;;;9.10;4.60;;;;;;;24.90;42.16;99905.66;104723;1257;61538;-60
2023/08/31 06:39:04;;;;;;;9.90;4.70;;;;;;;24.92;42.51;99909.11;104765;1265;65023;-57
2023/08/31 06:41:32;;;;;;;6.70;4.10;;;;;;;24.86;42.69;99911.69;108724;1259;60142;-56
2023/08/31 06:43:59;;;;;;;12.40;4.40;;;;;;;24.86;43.22;99916.53;107851;1263;63960;-57
2023/08/31 06:46:27;;;;;;;10.30;4.20;;;;;;;24.89;43.35;99918.93;104793;1260;60493;-57
2023/08/31 06:48:55;;;;;;;10.20;4.70;;;;;;;24.94;43.80;99920.30;104749;1261;59156;-59
2023/08/31 06:51:24;;;;;;;8.50;4.10;;;;;;;25.00;43.73;99925.48;105371;1263;65445;-56
2023/08/31 06:53:52;;;;;;;8.90;4.50;;;;;;;25.12;43.29;99928.41;106095;1259;61659;-56
2023/08/31 06:56:19;;;;;;;9.50;4.50;;;;;;;25.29;42.78;99923.46;104801;1263;64297;-58
2023/08/31 06:58:46;;;;;;;11.70;4.40;;;;;;;25.37;43.01;99922.17;105696;1259;60566;-58
2023/08/31 07:01:14;;;;;;;9.30;4.30;;;;;;;25.44;42.98;99922.83;104817;1260;60562;-58
2023/08/31 07:03:42;;;;;;;10.60;4.50;;;;;;;25.48;42.52;99922.45;105166;1264;63684;-60
2023/08/31 07:06:09;;;;;;;7.40;4.40;;;;;;;25.53;42.53;99920.94;104983;1260;61425;-62
2023/08/31 07:08:40;;;;;;;9.20;5.10;;;;;;;25.58;42.87;99919.51;104903;1262;62494;-62
2023/08/31 07:11:08;;;;;;;10.80;5.10;;;;;;;25.65;42.95;99920.36;104915;1262;60590;-60
2023/08/31 07:13:36;;;;;;;10.70;4.30;;;;;;;25.66;42.72;99924.05;105072;1259;60954;-58
2023/08/31 07:16:04;;;;;;;10.80;4.30;;;;;;;25.72;42.84;99927.33;105034;1260;65062;-58
2023/08/31 07:18:32;;;;;;;10.90;4.40;;;;;;;25.76;42.87;99931.23;105116;1263;61383;-58
2023/08/31 07:21:00;;;;;;;8.40;4.00;;;;;;;25.79;42.42;99928.98;105038;1259;63809;-58
2023/08/31 07:23:27;;;;;;;12.50;4.40;;;;;;;25.81;42.39;99934.00;104998;1265;60572;-59
2023/08/31 07:25:59;;;;;;;10.10;4.60;;;;;;;25.72;42.92;99937.84;105162;1265;60452;-57
2023/08/31 07:28:27;;;;;;;10.40;4.20;;;;;;;25.69;42.65;99933.02;105146;1260;65107;-57
2023/08/31 07:31:05;;;;;;;14.50;5.00;;;;;;;25.70;42.56;99933.79;105111;1262;61505;-60
2023/08/31 07:33:34;;;;;;;16.60;5.30;;;;;;;25.71;42.74;99936.04;105130;1261;63730;-57
2023/08/31 07:36:04;;;;;;;13.00;4.80;;;;;;;25.74;42.81;99934.59;105211;1260;60572;-56
2023/08/31 07:38:31;;;;;;;9.50;4.00;;;;;;;25.77;42.49;99934.98;105233;1260;60623;-57
2023/08/31 07:40:59;;;;;;;12.70;4.70;;;;;;;25.80;42.32;99934.77;105010;1259;63627;-56
2023/08/31 07:43:27;;;;;;;8.80;4.20;;;;;;;25.83;42.39;99938.02;104866;1259;61591;-57
2023/08/31 07:45:54;;;;;;;10.50;4.10;;;;;;;25.86;42.70;99935.73;105220;1259;66149;-57
2023/08/31 07:48:23;;;;;;;17.30;5.00;;;;;;;25.89;42.70;99930.51;104890;1262;61685;-57
2023/08/31 07:50:50;;;;;;;11.90;4.80;;;;;;;25.93;42.77;99930.64;104904;1258;61579;-59
2023/08/31 07:53:18;;;;;;;12.10;4.80;;;;;;;25.99;42.80;99931.23;104963;1260;63763;-57
2023/08/31 07:55:56;;;;;;;9.00;4.60;;;;;;;26.03;42.28;99931.92;104987;1260;61438;-55
2023/08/31 07:58:23;;;;;;;18.30;5.10;;;;;;;26.09;42.49;99935.93;104917;1260;62459;-57
2023/08/31 08:00:54;;;;;;;8.10;4.30;;;;;;;26.14;42.28;99933.84;104801;1261;60490;-58
2023/08/31 08:03:23;;;;;;;13.00;4.50;;;;;;;26.19;42.42;99931.98;105160;1262;60451;-57
2023/08/31 08:05:50;;;;;;;12.20;4.70;;;;;;;26.23;41.42;99931.81;104847;1260;65019;-56
2023/08/31 08:08:18;;;;;;;8.30;4.30;;;;;;;26.26;41.01;99932.26;104964;1262;61595;-59
2023/08/31 08:10:46;;;;;;;10.40;3.80;;;;;;;26.31;41.27;99930.04;104932;1260;63747;-56
2023/08/31 08:13:15;;;;;;;8.80;4.30;;;;;;;26.36;41.46;99933.05;104987;1263;60471;-60
2023/08/31 08:15:43;;;;;;;10.70;4.80;;;;;;;26.41;41.15;99933.32;104857;1260;60509;-58
2023/08/31 08:18:11;;;;;;;18.70;4.70;;;;;;;26.46;41.15;99928.36;105454;1265;65881;-60
2023/08/31 08:20:38;;;;;;;12.10;4.70;;;;;;;26.52;41.02;99926.84;104940;1264;61535;-62
2023/08/31 08:23:06;;;;;;;10.00;4.00;;;;;;;26.57;40.81;99924.15;105100;1262;63718;-64
2023/08/31 08:25:34;;;;;;;11.50;4.60;;;;;;;26.65;40.89;99925.09;104931;1264;60745;-62
2023/08/31 08:28:03;;;;;;;9.50;4.60;;;;;;;26.73;40.40;99923.61;105069;1258;60489;-61
2023/08/31 08:30:30;;;;;;;11.90;4.20;;;;;;;26.79;40.26;99921.67;105134;1260;64873;-60
2023/08/31 08:32:58;;;;;;;12.30;4.10;;;;;;;26.85;40.56;99923.59;105109;1259;61329;-60
2023/08/31 08:35:26;;;;;;;9.50;3.80;;;;;;;26.92;40.15;99923.91;105010;1262;63772;-61
2023/08/31 08:37:54;;;;;;;7.90;3.80;;;;;;;26.99;39.78;99918.25;105128;1262;60864;-64
2023/08/31 08:40:21;;;;;;;11.70;4.20;;;;;;;27.04;39.30;99918.20;104984;1264;60661;-60
2023/08/31 08:42:49;;;;;;;9.20;4.00;;;;;;;27.11;39.36;99918.14;105185;1262;63714;-62
2023/08/31 08:45:17;;;;;;;10.10;4.70;;;;;;;27.19;39.88;99919.58;104914;1259;61409;-61
2023/08/31 08:47:44;;;;;;;8.80;3.70;;;;;;;27.27;40.53;99914.17;104978;1264;62478;-61
2023/08/31 08:50:12;;;;;;;10.80;3.70;;;;;;;27.34;40.82;99912.73;104994;1262;60543;-62
2023/08/31 08:52:41;;;;;;;12.50;4.20;;;;;;;27.44;41.07;99910.95;106779;1263;60570;-64
2023/08/31 08:55:09;;;;;;;7.30;3.80;;;;;;;27.55;40.29;99907.29;104814;1264;64963;-62
2023/08/31 08:57:36;;;;;;;11.70;3.90;;;;;;;27.69;40.12;99912.40;104734;1265;69153;-64
2023/08/31 09:00:05;;;;;;;9.10;4.10;;;;;;;27.79;40.42;99912.33;105132;1266;62689;-57
2023/08/31 09:02:32;;;;;;;11.60;4.20;;;;;;;27.89;40.57;99907.18;105176;1259;60552;-58
2023/08/31 09:05:00;;;;;;;12.90;4.20;;;;;;;27.97;40.21;99911.42;105089;1263;60515;-68
2023/08/31 09:07:29;;;;;;;12.20;4.20;;;;;;;28.06;40.30;99913.23;105355;1264;65377;-61
2023/08/31 09:09:58;;;;;;;7.90;3.70;;;;;;;28.16;40.07;99912.66;105270;1258;61380;-65
2023/08/31 09:12:25;;;;;;;9.30;4.40;;;;;;;28.24;39.81;99914.86;105107;1265;63739;-66
2023/08/31 09:15:11;;;;;;;9.00;3.50;;;;;;;28.27;39.79;99914.10;105046;1264;60531;-67
2023/08/31 09:17:40;;;;;;;12.00;4.30;;;;;;;28.30;39.90;99910.72;105129;1271;60534;-58
2023/08/31 09:20:09;;;;;;;8.00;3.60;;;;;;;28.32;39.84;99911.17;105351;1259;64924;-59
2023/08/31 09:22:37;;;;;;;12.70;4.70;;;;;;;28.33;39.57;99910.55;104966;1260;61471;-59
2023/08/31 09:25:07;;;;;;;8.60;4.30;;;;;;;28.37;39.29;99913.45;105172;1259;63746;-60
2023/08/31 09:27:38;;;;;;;8.00;3.70;;;;;;;28.42;39.31;99915.30;105029;1265;60495;-58
2023/08/31 09:30:07;;;;;;;8.20;3.70;;;;;;;28.48;40.24;99913.15;104856;1258;60426;-60
2023/08/31 09:32:35;;;;;;;9.90;3.70;;;;;;;28.57;40.27;99906.84;104888;1264;64908;-58
2023/08/31 09:35:03;;;;;;;11.50;4.00;;;;;;;28.65;40.15;99905.20;104925;1262;62089;-60
2023/08/31 09:37:56;;;;;;;9.90;3.50;;;;;;;28.74;40.28;99909.73;104713;1268;66859;-60
2023/08/31 09:40:23;;;;;;;7.90;3.80;;;;;;;28.83;39.98;99909.28;104957;1264;60468;-57
2023/08/31 09:42:51;;;;;;;8.00;3.00;;;;;;;28.90;39.93;99913.03;104905;1264;60571;-59
2023/08/31 09:45:25;;;;;;;12.20;3.80;;;;;;;28.96;39.46;99913.63;104893;1263;64937;-58
2023/08/31 09:48:12;;;;;;;6.60;4.00;;;;;;;29.06;39.49;99911.28;104812;1259;61329;-60
2023/08/31 09:50:39;;;;;;;10.00;4.00;;;;;;;29.17;39.67;99909.08;104947;1263;63813;-58
2023/08/31 09:53:07;;;;;;;8.90;3.70;;;;;;;29.32;39.93;99911.98;104748;1262;67175;-65
2023/08/31 09:55:35;;;;;;;9.70;3.80;;;;;;;29.45;39.86;99906.50;104952;1266;60378;-59
2023/08/31 09:58:02;;;;;;;8.60;4.10;;;;;;;29.57;39.63;99904.52;104856;1267;65056;-60
2023/08/31 10:00:41;;;;;;;10.40;4.00;;;;;;;29.68;39.58;99907.14;105978;1261;61455;-62
2023/08/31 10:03:14;;;;;;;12.50;3.90;;;;;;;29.76;39.50;99907.27;104794;1262;63822;-62
2023/08/31 10:05:49;;;;;;;7.80;3.60;;;;;;;29.83;38.94;99912.52;104793;1266;60645;-61
2023/08/31 10:08:18;;;;;;;9.40;3.70;;;;;;;29.87;38.32;99912.44;105260;1257;60607;-59
2023/08/31 10:10:46;;;;;;;7.20;3.80;;;;;;;29.95;38.20;99914.82;105347;1259;65075;-60
2023/08/31 10:13:13;;;;;;;12.50;3.90;;;;;;;30.02;38.14;99912.79;104646;1265;60417;-62
2023/08/31 10:15:43;;;;;;;7.20;3.20;;;;;;;30.08;37.94;99911.58;104900;1264;63731;-60
2023/08/31 10:18:10;;;;;;;10.80;4.20;;;;;;;30.14;37.63;99911.44;105496;1263;61033;-60
2023/08/31 10:20:41;;;;;;;14.10;4.70;;;;;;;30.18;36.88;99908.58;105499;1257;60769;-62
2023/08/31 10:23:09;;;;;;;13.60;5.10;;;;;;;30.21;36.56;99909.40;108739;1260;64022;-64
2023/08/31 10:25:49;;;;;;;17.00;5.10;;;;;;;30.20;36.42;99908.58;105041;1257;61161;-61
2023/08/31 10:28:18;;;;;;;8.20;4.20;;;;;;;30.22;36.20;99909.46;104852;1261;64214;-62
2023/08/31 10:31:05;;;;;;;11.50;3.90;;;;;;;30.24;36.16;99910.83;105146;1261;60664;-63
2023/08/31 10:33:39;;;;;;;13.40;5.50;;;;;;;30.24;35.70;99912.08;105038;1264;60391;-65
2023/08/31 10:36:12;;;;;;;31.20;7.50;;;;;;;30.23;36.50;99911.30;104855;1263;65121;-61
2023/08/31 10:38:39;;;;;;;19.30;6.50;;;;;;;30.21;37.02;99914.13;105164;1261;61424;-57
2023/08/31 10:41:07;;;;;;;23.00;6.50;;;;;;;30.18;36.91;99911.84;104766;1263;62512;-56
2023/08/31 10:43:53;;;;;;;12.80;4.70;;;;;;;30.18;36.70;99907.77;104840;1261;60902;-55
2023/08/31 10:46:47;;;;;;;9.80;3.80;;;;;;;30.17;36.76;99910.80;105344;1257;61672;-56
2023/08/31 10:49:17;;;;;;;13.60;3.80;;;;;;;30.15;37.06;99910.48;105036;1263;64985;-60
2023/08/31 10:51:48;;;;;;;11.40;3.30;;;;;;;30.13;36.70;99907.63;105747;1261;61366;-55
2023/08/31 10:54:18;;;;;;;7.00;3.90;;;;;;;30.12;36.84;99907.14;105891;1258;63824;-57
2023/08/31 10:57:08;;;;;;;8.70;3.80;;;;;;;30.10;37.74;99912.61;105179;1262;60464;-60
2023/08/31 10:59:52;;;;;;;10.60;3.50;;;;;;;30.08;37.39;99910.48;105241;1262;60466;-60
2023/08/31 11:02:36;;;;;;;10.10;4.50;;;;;;;30.08;36.80;99903.93;108699;1258;63721;-59
2023/08/31 11:05:08;;;;;;;9.70;4.40;;;;;;;30.09;37.30;99904.79;108791;1263;60111;-64
2023/08/31 11:07:36;;;;;;;6.80;3.40;;;;;;;30.10;37.82;99907.66;106346;1263;62436;-58
2023/08/31 11:10:10;;;;;;;8.10;4.00;;;;;;;30.13;37.35;99905.73;108773;1258;58221;-58
2023/08/31 11:12:39;;;;;;;8.80;4.10;;;;;;;30.16;36.63;99902.92;108818;1257;58282;-59
2023/08/31 11:15:07;;;;;;;8.00;4.30;;;;;;;30.19;36.61;99900.23;105659;1257;63653;-58
2023/08/31 11:17:34;;;;;;;12.90;4.10;;;;;;;30.24;36.81;99898.08;104860;1263;61447;-58
2023/08/31 11:20:05;;;;;;;27.10;7.60;;;;;;;30.26;37.34;99897.82;105081;1263;63701;-59
2023/08/31 11:22:33;;;;;;;26.30;6.60;;;;;;;30.26;37.36;99896.19;104989;1261;60574;-58
2023/08/31 11:25:00;;;;;;;31.60;7.40;;;;;;;30.29;37.16;99898.15;105063;1263;60436;-57
2023/08/31 11:27:28;;;;;;;18.00;4.90;;;;;;;30.31;37.41;99897.02;105059;1258;63764;-57
2023/08/31 11:29:56;;;;;;;19.60;5.80;;;;;;;30.33;37.03;99896.38;105014;1263;60460;-70
2023/08/31 11:32:26;;;;;;;10.80;4.40;;;;;;;30.36;36.49;99897.11;105138;1260;63765;-60